Time;durP1;ratioP1;P1;durP2;ratioP2;P2;SDS_P1;SDS_P2;PMS_P1;PMS_P2;Temp;Humidity;BMP_temperature;BMP_pressure;BME280_temperature;BME280_humidity;BME280_pressure;Samples;Min_cycle;Max_cycle;Signal;HPM_P1;HPM_P2
2021/10/31 00:01:17;;;;;;;18.50;7.57;;;12.60;99.90;;;;;;5105189;27;34987;-74
2021/10/31 00:03:44;;;;;;;17.40;8.40;;;12.60;99.90;;;;;;5105292;27;38153;-75
2021/10/31 00:06:10;;;;;;;17.07;7.57;;;12.60;99.90;;;;;;5110915;27;37657;-75
2021/10/31 00:08:37;;;;;;;19.23;7.60;;;12.60;99.90;;;;;;5109314;27;39890;-74
2021/10/31 00:11:03;;;;;;;20.87;8.53;;;12.60;99.90;;;;;;5107386;27;39158;-75
2021/10/31 00:13:29;;;;;;;22.60;9.40;;;12.60;99.90;;;;;;5109404;27;36137;-77
2021/10/31 00:15:56;;;;;;;19.47;9.40;;;12.60;99.90;;;;;;5106501;27;38667;-75
2021/10/31 00:18:22;;;;;;;15.87;8.87;;;12.60;99.90;;;;;;5107331;27;38491;-75
2021/10/31 00:20:48;;;;;;;22.30;8.90;;;12.60;99.90;;;;;;5118336;27;38444;-74
2021/10/31 00:23:15;;;;;;;20.63;8.77;;;12.50;99.90;;;;;;5104580;27;37738;-74
2021/10/31 00:25:41;;;;;;;18.83;8.67;;;12.50;99.90;;;;;;5101285;27;37501;-74
2021/10/31 00:28:07;;;;;;;22.03;8.93;;;12.50;99.90;;;;;;5106440;27;37323;-74
2021/10/31 00:30:34;;;;;;;21.07;8.77;;;12.40;99.90;;;;;;5102365;27;39106;-74
2021/10/31 00:33:00;;;;;;;23.93;10.03;;;12.40;99.90;;;;;;5109378;27;36997;-74
2021/10/31 00:35:26;;;;;;;26.97;10.33;;;12.40;99.90;;;;;;5107378;27;38913;-76
2021/10/31 00:37:52;;;;;;;13.07;8.07;;;12.40;99.90;;;;;;5109044;27;38770;-75
2021/10/31 00:40:20;;;;;;;20.90;7.73;;;12.40;99.90;;;;;;5113876;27;38348;-76
2021/10/31 00:42:47;;;;;;;18.23;7.60;;;12.40;99.90;;;;;;5111993;27;37988;-74
2021/10/31 00:45:13;;;;;;;15.43;7.47;;;12.30;99.90;;;;;;5115699;27;40316;-76
2021/10/31 00:47:39;;;;;;;20.73;8.27;;;12.30;99.90;;;;;;5111599;27;35831;-76
2021/10/31 00:50:06;;;;;;;16.73;8.80;;;12.30;99.90;;;;;;5108762;27;38525;-76
2021/10/31 00:52:32;;;;;;;23.17;8.60;;;12.30;99.90;;;;;;5113894;27;37593;-76
2021/10/31 00:54:58;;;;;;;16.73;8.03;;;12.40;99.90;;;;;;5124523;27;37952;-76
2021/10/31 00:57:25;;;;;;;16.77;7.10;;;12.30;99.90;;;;;;5149500;27;39152;-76
2021/10/31 00:59:52;;;;;;;20.17;8.37;;;12.30;99.90;;;;;;5137738;27;37429;-76
2021/10/31 01:02:18;;;;;;;14.27;6.83;;;12.10;99.90;;;;;;5126810;27;37237;-76
2021/10/31 01:04:47;;;;;;;15.97;8.00;;;12.10;99.90;;;;;;5126799;27;38652;-75
2021/10/31 01:07:52;;;;;;;18.03;7.77;;;12.10;99.90;;;;;;5132663;27;39080;-76
2021/10/31 01:10:42;;;;;;;21.07;6.87;;;12.20;99.90;;;;;;5120089;27;38295;-76
2021/10/31 01:13:47;;;;;;;18.13;7.87;;;12.20;99.90;;;;;;5123702;27;37443;-74
2021/10/31 01:16:19;;;;;;;17.47;8.77;;;12.10;99.90;;;;;;5093047;27;39645;-75
2021/10/31 01:19:10;;;;;;;24.25;7.20;;;12.20;99.90;;;;;;5123669;27;38583;-74
2021/10/31 01:21:51;;;;;;;16.33;7.40;;;12.20;99.90;;;;;;5135518;27;48491;-75
2021/10/31 01:24:41;;;;;;;16.20;7.07;;;12.10;99.90;;;;;;5131959;27;39169;-75
2021/10/31 01:27:17;;;;;;;20.73;8.40;;;12.00;99.90;;;;;;5133687;27;39783;-74
2021/10/31 01:30:03;;;;;;;11.70;6.40;;;11.90;99.90;;;;;;5135957;27;38515;-74
2021/10/31 01:32:53;;;;;;;16.73;8.17;;;11.80;99.90;;;;;;5126866;27;47314;-73
2021/10/31 01:35:31;;;;;;;21.67;8.30;;;12.00;99.90;;;;;;5133747;27;38047;-74
2021/10/31 01:38:20;;;;;;;13.97;6.63;;;12.00;99.90;;;;;;5132867;27;40273;-73
2021/10/31 01:41:05;;;;;;;22.83;7.70;;;12.00;99.90;;;;;;5136801;27;48881;-74
2021/10/31 01:43:58;;;;;;;22.80;8.53;;;12.00;99.90;;;;;;5139155;27;49115;-75
2021/10/31 01:46:50;;;;;;;19.27;7.57;;;12.00;99.90;;;;;;5137822;27;38256;-75
2021/10/31 01:49:34;;;;;;;13.70;7.10;;;11.80;99.90;;;;;;5129711;27;37824;-76
2021/10/31 01:52:11;;;;;;;19.27;8.73;;;11.80;99.90;;;;;;5127035;27;38412;-76
2021/10/31 01:54:57;;;;;;;17.47;6.37;;;11.80;99.90;;;;;;5132523;27;47851;-75
2021/10/31 01:57:25;;;;;;;15.57;7.23;;;11.90;99.90;;;;;;5135560;27;37896;-76
2021/10/31 01:59:58;;;;;;;15.97;7.80;;;11.80;99.90;;;;;;5131432;27;39840;-74
2021/10/31 02:02:27;;;;;;;20.97;8.87;;;11.90;99.90;;;;;;5129015;27;37066;-74
2021/10/31 02:04:55;;;;;;;28.43;11.77;;;11.90;99.90;;;;;;5130646;27;38281;-73
2021/10/31 02:07:21;;;;;;;18.03;10.33;;;12.00;99.90;;;;;;5135886;27;36756;-74
2021/10/31 02:09:50;;;;;;;23.07;11.30;;;12.00;99.90;;;;;;5127563;27;39414;-73
2021/10/31 02:12:18;;;;;;;18.90;11.13;;;12.00;99.90;;;;;;5124276;27;38984;-74
2021/10/31 02:14:47;;;;;;;29.13;10.63;;;12.00;99.90;;;;;;5127624;27;39659;-73
2021/10/31 02:17:19;;;;;;;20.77;10.20;;;12.00;99.90;;;;;;5145297;27;38709;-73
2021/10/31 02:19:47;;;;;;;26.40;10.50;;;12.00;99.90;;;;;;5144209;27;39806;-74
2021/10/31 02:22:40;;;;;;;19.33;10.30;;;12.00;99.90;;;;;;5131898;27;38523;-73
2021/10/31 02:25:07;;;;;;;19.00;9.23;;;12.00;99.90;;;;;;5124129;27;38210;-74
2021/10/31 02:27:35;;;;;;;13.77;9.53;;;12.10;99.90;;;;;;5132982;27;38825;-73
2021/10/31 02:30:03;;;;;;;26.57;10.10;;;12.10;99.90;;;;;;5131518;27;40494;-73
2021/10/31 02:32:31;;;;;;;21.17;9.20;;;12.10;99.90;;;;;;5137824;27;47200;-75
2021/10/31 02:34:58;;;;;;;19.83;9.43;;;12.10;99.90;;;;;;5129244;27;39837;-76
2021/10/31 02:37:26;;;;;;;18.90;9.27;;;12.00;99.90;;;;;;5129844;27;35128;-76
2021/10/31 02:39:53;;;;;;;18.97;8.03;;;12.00;99.90;;;;;;5137964;27;38533;-76
2021/10/31 02:42:19;;;;;;;15.57;9.13;;;12.10;99.90;;;;;;5136106;27;39160;-76
2021/10/31 02:44:46;;;;;;;19.37;8.67;;;12.10;99.90;;;;;;5118985;27;37239;-76
2021/10/31 02:47:24;;;;;;;13.33;7.43;;;12.10;99.90;;;;;;5120160;27;37691;-73
2021/10/31 02:49:50;;;;;;;16.83;7.87;;;12.10;99.90;;;;;;5127036;27;39110;-73
2021/10/31 02:53:06;;;;;;;18.53;7.77;;;12.10;99.90;;;;;;5122258;27;38893;-74
2021/10/31 02:55:42;;;;;;;18.37;8.27;;;12.10;99.90;;;;;;5103156;27;47186;-73
2021/10/31 02:58:42;;;;;;;14.33;7.93;;;12.00;99.90;;;;;;5145513;27;37401;-73
2021/10/31 03:01:09;;;;;;;13.97;7.10;;;12.00;99.90;;;;;;5132641;27;38914;-74
2021/10/31 03:03:35;;;;;;;13.77;8.50;;;12.00;99.90;;;;;;5127154;27;38659;-75
2021/10/31 03:06:04;;;;;;;10.90;6.70;;;12.00;99.90;;;;;;5130757;27;39062;-76
2021/10/31 03:08:31;;;;;;;16.50;7.93;;;12.00;99.90;;;;;;5131359;27;37793;-74
2021/10/31 03:11:04;;;;;;;17.90;8.03;;;11.90;99.90;;;;;;5126424;27;38951;-75
2021/10/31 03:13:30;;;;;;;;;;;11.90;99.90;;;;;;5128390;27;48166;-75
2021/10/31 03:15:56;;;;;;;17.63;9.10;;;11.80;99.90;;;;;;5127582;27;37384;-74
2021/10/31 03:18:23;;;;;;;13.93;7.37;;;11.80;99.90;;;;;;5109926;27;37738;-74
2021/10/31 03:20:50;;;;;;;17.03;7.83;;;11.80;99.90;;;;;;5131469;27;38812;-74
2021/10/31 03:23:16;;;;;;;15.40;9.00;;;11.80;99.90;;;;;;5138901;27;38900;-74
2021/10/31 03:25:43;;;;;;;22.50;8.10;;;11.70;99.90;;;;;;5117262;27;39342;-74
2021/10/31 03:28:09;;;;;;;13.37;7.77;;;11.70;99.90;;;;;;5131293;27;37267;-74
2021/10/31 03:30:35;;;;;;;14.90;7.73;;;11.80;99.90;;;;;;5118258;27;37639;-74
2021/10/31 03:33:02;;;;;;;15.10;7.57;;;11.70;99.90;;;;;;5113058;27;37874;-75
2021/10/31 03:35:28;;;;;;;14.17;7.13;;;11.70;99.90;;;;;;5136392;27;39653;-74
2021/10/31 03:37:54;;;;;;;15.17;7.67;;;11.70;99.90;;;;;;5132725;27;37064;-75
2021/10/31 03:40:21;;;;;;;17.53;8.33;;;11.70;99.90;;;;;;5136620;27;38680;-74
2021/10/31 03:42:47;;;;;;;15.87;9.70;;;11.70;99.90;;;;;;5139374;27;37977;-74
2021/10/31 03:45:14;;;;;;;19.57;9.03;;;11.60;99.90;;;;;;5110007;27;37796;-75
2021/10/31 03:47:48;;;;;;;13.77;8.73;;;11.60;99.90;;;;;;5134085;27;38809;-75
2021/10/31 03:50:23;;;;;;;20.37;9.53;;;11.60;99.90;;;;;;5131256;27;37332;-74
2021/10/31 03:52:50;;;;;;;16.90;8.97;;;11.50;99.90;;;;;;5125237;27;38264;-74
2021/10/31 03:55:19;;;;;;;22.00;10.90;;;11.40;99.90;;;;;;5140116;27;38278;-74
2021/10/31 03:57:48;;;;;;;12.03;8.73;;;11.40;99.90;;;;;;5118231;27;37947;-75
2021/10/31 04:00:16;;;;;;;19.00;10.33;;;11.40;99.90;;;;;;5133560;27;38558;-76
2021/10/31 04:02:43;;;;;;;25.47;12.50;;;11.30;99.90;;;;;;5107987;27;37412;-76
2021/10/31 04:05:10;;;;;;;25.23;13.40;;;11.40;99.90;;;;;;5130102;27;38885;-73
2021/10/31 04:07:37;;;;;;;17.10;13.23;;;11.40;99.90;;;;;;5133584;27;37400;-74
2021/10/31 04:10:04;;;;;;;29.27;18.73;;;11.40;99.90;;;;;;5111045;27;39423;-74
2021/10/31 04:12:30;;;;;;;25.80;15.00;;;11.40;99.90;;;;;;5115318;27;47387;-73
2021/10/31 04:14:56;;;;;;;24.93;16.20;;;11.40;99.90;;;;;;5130148;27;38118;-74
2021/10/31 04:17:22;;;;;;;24.97;15.33;;;11.40;99.90;;;;;;5133313;27;37579;-73
2021/10/31 04:19:48;;;;;;;23.83;16.30;;;11.30;99.90;;;;;;5135330;27;37771;-73
2021/10/31 04:22:15;;;;;;;32.07;19.37;;;11.40;99.90;;;;;;5134414;27;37360;-73
2021/10/31 04:24:41;;;;;;;26.23;17.73;;;11.40;99.90;;;;;;5132535;27;37209;-74
2021/10/31 04:27:07;;;;;;;28.03;18.17;;;11.40;99.90;;;;;;5136927;27;38405;-74
2021/10/31 04:29:34;;;;;;;30.97;18.53;;;11.40;99.90;;;;;;5132916;27;37653;-74
2021/10/31 04:32:00;;;;;;;34.13;19.63;;;11.40;99.90;;;;;;5134803;27;40913;-74
2021/10/31 04:34:26;;;;;;;29.43;19.90;;;11.40;99.90;;;;;;5116214;27;36671;-74
2021/10/31 04:36:52;;;;;;;30.80;19.03;;;11.50;99.90;;;;;;5118089;27;36441;-74
2021/10/31 04:39:19;;;;;;;26.20;18.70;;;11.40;99.90;;;;;;5119178;27;40054;-74
2021/10/31 04:41:47;;;;;;;28.20;18.70;;;11.40;99.90;;;;;;5124630;27;37408;-74
2021/10/31 04:44:14;;;;;;;28.10;17.70;;;11.40;99.90;;;;;;5134113;27;36883;-75
2021/10/31 04:46:41;;;;;;;28.43;19.37;;;11.40;99.90;;;;;;5150625;27;37896;-74
2021/10/31 04:49:07;;;;;;;27.70;19.13;;;11.30;99.90;;;;;;5126310;27;37561;-74
2021/10/31 04:51:34;;;;;;;33.60;19.70;;;11.30;99.90;;;;;;5120444;27;37915;-73
2021/10/31 04:54:00;;;;;;;31.27;19.40;;;11.30;99.90;;;;;;5117206;27;36866;-73
2021/10/31 04:56:26;;;;;;;29.03;18.90;;;11.30;99.90;;;;;;5112241;27;36235;-74
2021/10/31 04:58:53;;;;;;;35.60;21.47;;;11.30;99.90;;;;;;5137758;27;39337;-73
2021/10/31 05:01:20;;;;;;;31.37;21.20;;;11.30;99.90;;;;;;5130694;27;38073;-73
2021/10/31 05:03:47;;;;;;;26.33;18.70;;;11.30;99.90;;;;;;5136497;27;37853;-73
2021/10/31 05:06:13;;;;;;;36.53;22.63;;;11.20;99.90;;;;;;5131678;27;36531;-75
2021/10/31 05:08:40;;;;;;;29.70;20.57;;;11.30;99.90;;;;;;5153550;27;37864;-75
2021/10/31 05:11:07;;;;;;;35.97;21.47;;;11.30;99.90;;;;;;5130139;27;37116;-75
2021/10/31 05:13:34;;;;;;;37.77;22.23;;;11.30;99.90;;;;;;5135506;27;35993;-73
2021/10/31 05:16:00;;;;;;;43.80;23.00;;;11.30;99.90;;;;;;5139230;27;37563;-74
2021/10/31 05:18:26;;;;;;;31.20;19.97;;;11.30;99.90;;;;;;5136402;27;41206;-73
2021/10/31 05:20:53;;;;;;;33.13;20.03;;;11.20;99.90;;;;;;5131634;27;39374;-73
2021/10/31 05:23:19;;;;;;;32.50;19.13;;;11.20;99.90;;;;;;5111666;27;36204;-74
2021/10/31 05:25:45;;;;;;;36.53;20.53;;;11.10;99.90;;;;;;5119092;27;36308;-73
2021/10/31 05:28:12;;;;;;;35.13;20.67;;;11.10;99.90;;;;;;5111772;27;38831;-73
2021/10/31 05:30:38;;;;;;;41.17;22.80;;;11.20;99.90;;;;;;5135984;27;38299;-73
2021/10/31 05:33:05;;;;;;;35.77;22.10;;;11.10;99.90;;;;;;5114004;27;40014;-75
2021/10/31 05:35:31;;;;;;;36.63;22.10;;;11.10;99.90;;;;;;5134285;27;37746;-75
2021/10/31 05:37:58;;;;;;;37.63;20.47;;;11.10;99.90;;;;;;5128599;27;40279;-76
2021/10/31 05:40:26;;;;;;;43.83;22.77;;;11.10;99.90;;;;;;5138637;27;36317;-76
2021/10/31 05:42:53;;;;;;;39.90;21.73;;;11.10;99.90;;;;;;5132310;27;38190;-73
2021/10/31 05:45:19;;;;;;;38.90;21.30;;;11.10;99.90;;;;;;5132378;27;39426;-75
2021/10/31 05:47:46;;;;;;;37.43;21.10;;;11.10;99.90;;;;;;5135184;27;38727;-75
2021/10/31 05:50:15;;;;;;;39.67;20.57;;;11.10;99.90;;;;;;5139279;27;39361;-74
2021/10/31 05:52:43;;;;;;;33.47;21.00;;;11.10;99.90;;;;;;5143016;27;38586;-73
2021/10/31 05:55:12;;;;;;;36.30;22.97;;;11.10;99.90;;;;;;5140337;27;37568;-74
2021/10/31 05:57:38;;;;;;;39.53;20.43;;;11.10;99.90;;;;;;5128041;27;39037;-73
2021/10/31 06:00:07;;;;;;;34.07;20.20;;;11.10;99.90;;;;;;5132572;27;38380;-74
2021/10/31 06:02:33;;;;;;;29.90;18.90;;;11.20;99.90;;;;;;5133823;27;46866;-74
2021/10/31 06:05:00;;;;;;;38.53;21.20;;;11.10;99.90;;;;;;5140394;27;37703;-74
2021/10/31 06:07:26;;;;;;;40.77;21.33;;;11.10;99.90;;;;;;5138897;27;37760;-73
2021/10/31 06:09:54;;;;;;;46.60;22.30;;;11.10;99.90;;;;;;5134942;27;37252;-74
2021/10/31 06:12:20;;;;;;;41.37;22.33;;;11.10;99.90;;;;;;5126612;27;38553;-73
2021/10/31 06:14:46;;;;;;;34.33;21.77;;;11.10;99.90;;;;;;5125521;27;36886;-74
2021/10/31 06:17:12;;;;;;;41.80;23.40;;;11.20;99.90;;;;;;5137728;27;40191;-74
2021/10/31 06:19:39;;;;;;;31.70;20.13;;;11.30;99.90;;;;;;5110636;27;38267;-74
2021/10/31 06:22:05;;;;;;;32.17;19.07;;;11.30;99.90;;;;;;5111703;27;39151;-74
2021/10/31 06:24:32;;;;;;;37.80;20.53;;;11.30;99.90;;;;;;5128191;27;36460;-74
2021/10/31 06:26:58;;;;;;;41.70;22.77;;;11.30;99.90;;;;;;5113931;27;39543;-74
2021/10/31 06:29:25;;;;;;;45.17;22.93;;;11.30;99.90;;;;;;5115640;27;38397;-75
2021/10/31 06:31:51;;;;;;;38.93;22.50;;;11.30;99.90;;;;;;5127855;27;36549;-75
2021/10/31 06:34:17;;;;;;;42.90;22.37;;;11.30;99.90;;;;;;5130925;27;39473;-75
2021/10/31 06:36:45;;;;;;;31.47;19.07;;;11.40;99.90;;;;;;5128664;27;37882;-75
2021/10/31 06:39:12;;;;;;;30.77;19.83;;;11.40;99.90;;;;;;5131794;27;38295;-75
2021/10/31 06:41:38;;;;;;;34.53;20.40;;;11.40;99.90;;;;;;5133393;27;38120;-73
2021/10/31 06:44:04;;;;;;;46.13;24.77;;;11.40;99.90;;;;;;5129044;27;36210;-73
2021/10/31 06:46:32;;;;;;;40.20;21.87;;;11.40;99.90;;;;;;5127537;27;39357;-75
2021/10/31 06:48:58;;;;;;;43.83;23.20;;;11.40;99.90;;;;;;5128600;27;37648;-74
2021/10/31 06:51:24;;;;;;;46.03;23.30;;;11.40;99.90;;;;;;5148203;27;38519;-74
2021/10/31 06:53:51;;;;;;;38.80;21.93;;;11.40;99.90;;;;;;5150936;27;37857;-74
2021/10/31 06:56:17;;;;;;;37.33;22.60;;;11.50;99.90;;;;;;5147337;27;39995;-73
2021/10/31 06:58:43;;;;;;;42.77;23.67;;;11.50;99.90;;;;;;5150582;27;38253;-73
2021/10/31 07:01:09;;;;;;;32.70;20.60;;;11.50;99.90;;;;;;5152851;27;38627;-74
2021/10/31 07:03:36;;;;;;;42.07;23.47;;;11.60;99.90;;;;;;5152683;27;37310;-73
2021/10/31 07:06:04;;;;;;;37.17;22.43;;;11.60;99.90;;;;;;5129518;27;36056;-75
2021/10/31 07:08:30;;;;;;;44.00;22.70;;;11.60;99.90;;;;;;5129402;27;37523;-73
2021/10/31 07:10:57;;;;;;;36.53;21.17;;;11.70;99.90;;;;;;5132379;27;38347;-74
2021/10/31 07:13:23;;;;;;;35.60;21.70;;;11.70;99.90;;;;;;5149703;27;35953;-74
2021/10/31 07:15:49;;;;;;;38.63;23.47;;;11.80;99.90;;;;;;5150803;27;38367;-73
2021/10/31 07:18:16;;;;;;;49.83;25.90;;;11.80;99.90;;;;;;5153535;27;37037;-74
2021/10/31 07:20:42;;;;;;;37.77;22.30;;;11.90;99.90;;;;;;5130986;27;36320;-74
2021/10/31 07:23:08;;;;;;;43.03;25.37;;;12.00;99.90;;;;;;5151712;27;37372;-73
2021/10/31 07:25:34;;;;;;;42.37;23.83;;;12.00;99.90;;;;;;5147953;27;39398;-73
2021/10/31 07:28:00;;;;;;;39.20;22.60;;;12.00;99.90;;;;;;5131125;27;34841;-74
2021/10/31 07:30:27;;;;;;;43.63;24.03;;;12.00;99.90;;;;;;5151480;27;47750;-76
2021/10/31 07:32:58;;;;;;;38.53;22.50;;;12.10;99.90;;;;;;5134817;27;37772;-74
2021/10/31 07:35:24;;;;;;;36.37;22.87;;;12.10;99.90;;;;;;5125905;27;37755;-76
2021/10/31 07:37:50;;;;;;;36.90;23.63;;;12.20;99.90;;;;;;5128589;27;36590;-76
2021/10/31 07:40:17;;;;;;;34.30;21.57;;;12.20;99.90;;;;;;5154469;27;37906;-75
2021/10/31 07:42:43;;;;;;;36.20;21.27;;;12.30;99.90;;;;;;5135742;27;37540;-75
2021/10/31 07:45:10;;;;;;;36.47;22.10;;;12.30;99.90;;;;;;5165619;27;39685;-75
2021/10/31 07:47:36;;;;;;;36.37;22.23;;;12.40;99.90;;;;;;5135406;27;39268;-75
2021/10/31 07:50:04;;;;;;;34.23;21.53;;;12.40;99.90;;;;;;5138978;27;39307;-74
2021/10/31 07:52:30;;;;;;;36.83;21.03;;;12.50;99.90;;;;;;5140973;27;47357;-75
2021/10/31 07:54:56;;;;;;;29.37;19.63;;;12.50;99.90;;;;;;5142688;27;39002;-75
2021/10/31 07:57:24;;;;;;;32.93;20.80;;;12.50;99.90;;;;;;5145678;27;39824;-75
2021/10/31 07:59:51;;;;;;;32.67;19.83;;;12.50;99.90;;;;;;5160660;27;38265;-74
2021/10/31 08:02:18;;;;;;;30.53;19.83;;;12.60;99.90;;;;;;5164075;27;36129;-75
2021/10/31 08:04:44;;;;;;;26.57;18.53;;;12.60;99.90;;;;;;5157089;27;38594;-75
2021/10/31 08:07:12;;;;;;;25.50;18.13;;;12.60;99.90;;;;;;5136783;27;38334;-76
2021/10/31 08:09:38;;;;;;;22.33;17.47;;;12.60;99.90;;;;;;5167338;27;38025;-75
2021/10/31 08:12:04;;;;;;;23.83;16.60;;;12.70;99.90;;;;;;5135050;27;36705;-74
2021/10/31 08:14:30;;;;;;;26.60;16.97;;;12.70;99.90;;;;;;5153952;27;39526;-75
2021/10/31 08:16:56;;;;;;;26.20;16.20;;;12.70;99.90;;;;;;5136341;27;39305;-75
2021/10/31 08:19:25;;;;;;;19.83;14.47;;;12.80;99.90;;;;;;5133973;27;38920;-75
2021/10/31 08:21:53;;;;;;;21.37;15.10;;;12.80;99.90;;;;;;5151879;27;37347;-76
2021/10/31 08:24:20;;;;;;;18.47;15.70;;;12.90;99.90;;;;;;5135432;27;38361;-75
2021/10/31 08:26:48;;;;;;;23.17;15.33;;;12.90;99.90;;;;;;5134318;27;39033;-75
2021/10/31 08:29:18;;;;;;;18.40;13.93;;;13.00;99.90;;;;;;5134828;27;38361;-75
2021/10/31 08:31:48;;;;;;;18.33;15.17;;;13.10;99.90;;;;;;5137493;27;38475;-75
2021/10/31 08:34:14;;;;;;;19.00;14.43;;;13.20;99.90;;;;;;5134631;27;39007;-75
2021/10/31 08:36:40;;;;;;;17.83;13.60;;;13.30;99.90;;;;;;5132372;27;39537;-73
2021/10/31 08:39:07;;;;;;;17.05;13.10;;;13.30;99.90;;;;;;5131315;27;37002;-75
2021/10/31 08:41:34;;;;;;;16.40;12.48;;;13.40;99.90;;;;;;5127932;27;36484;-74
2021/10/31 08:44:01;;;;;;;16.55;12.00;;;13.40;99.90;;;;;;5146308;27;38651;-79
2021/10/31 08:46:28;;;;;;;15.38;12.25;;;13.50;99.90;;;;;;5123717;27;47435;-75
2021/10/31 08:48:55;;;;;;;18.85;10.90;;;13.50;99.90;;;;;;5134126;27;38699;-74
2021/10/31 08:51:23;;;;;;;13.77;9.63;;;13.60;99.90;;;;;;5148696;27;37232;-75
2021/10/31 08:53:50;;;;;;;16.00;9.75;;;13.60;99.90;;;;;;5146745;27;39350;-75
2021/10/31 08:56:16;;;;;;;11.20;9.93;;;13.60;99.90;;;;;;5125792;27;38919;-79
2021/10/31 08:58:44;;;;;;;15.02;9.43;;;13.70;99.90;;;;;;5133405;27;20155;-76
2021/10/31 09:01:14;;;;;;;9.80;8.80;;;13.70;99.90;;;;;;5115309;27;35558;-75
2021/10/31 09:03:40;;;;;;;11.63;8.80;;;13.70;99.90;;;;;;5116170;27;39363;-75
2021/10/31 09:06:08;;;;;;;11.05;8.63;;;13.80;99.90;;;;;;5125358;27;38960;-73
2021/10/31 09:08:34;;;;;;;12.75;9.05;;;13.80;99.90;;;;;;5142748;27;38380;-74
2021/10/31 09:11:01;;;;;;;12.07;8.85;;;13.80;99.90;;;;;;5136026;27;37700;-75
2021/10/31 09:13:27;;;;;;;11.82;7.72;;;13.80;99.90;;;;;;5141760;27;49605;-74
2021/10/31 09:15:53;;;;;;;13.45;7.88;;;13.80;99.90;;;;;;5144970;27;37829;-74
2021/10/31 09:18:20;;;;;;;12.68;7.63;;;13.90;99.90;;;;;;5139775;27;37709;-74
2021/10/31 09:20:46;;;;;;;10.32;8.00;;;13.90;99.90;;;;;;5124006;27;37870;-74
2021/10/31 09:23:13;;;;;;;11.77;7.70;;;13.90;99.90;;;;;;5148946;27;39070;-74
2021/10/31 09:25:39;;;;;;;7.75;6.95;;;13.90;99.90;;;;;;5119974;27;37447;-75
2021/10/31 09:28:06;;;;;;;9.55;6.75;;;13.90;99.90;;;;;;5134146;27;36742;-74
2021/10/31 09:30:40;;;;;;;9.88;7.05;;;13.90;99.90;;;;;;5129088;27;37054;-74
2021/10/31 09:33:10;;;;;;;8.85;5.95;;;13.90;99.90;;;;;;5129204;27;37780;-75
2021/10/31 09:35:43;;;;;;;6.32;5.72;;;13.90;99.90;;;;;;5133592;27;38984;-75
2021/10/31 09:38:11;;;;;;;8.70;5.90;;;14.00;99.90;;;;;;5155888;27;37392;-75
2021/10/31 09:40:38;;;;;;;8.68;5.97;;;14.00;99.90;;;;;;5133024;27;38711;-77
2021/10/31 09:43:05;;;;;;;9.95;6.32;;;14.10;99.90;;;;;;5119293;27;40713;-76
2021/10/31 09:45:33;;;;;;;10.05;5.63;;;14.10;99.90;;;;;;5144916;27;39109;-75
2021/10/31 09:48:06;;;;;;;6.35;5.43;;;14.10;99.90;;;;;;5137712;27;38772;-76
2021/10/31 09:50:35;;;;;;;9.90;5.50;;;14.20;99.90;;;;;;5124776;27;46933;-75
2021/10/31 09:53:02;;;;;;;8.38;5.70;;;14.30;99.90;;;;;;5141654;27;40167;-76
2021/10/31 09:55:29;;;;;;;7.78;5.18;;;14.30;99.90;;;;;;5137071;27;38497;-74
2021/10/31 09:57:57;;;;;;;7.30;4.85;;;14.40;99.90;;;;;;5135982;27;37363;-75
2021/10/31 10:00:59;;;;;;;10.18;4.32;;;14.50;99.90;;;;;;5135887;27;37784;-75
2021/10/31 10:06:19;;;;;;;7.50;4.50;;;14.50;99.90;;;;;;5135651;27;38691;-75
2021/10/31 10:09:01;;;;;;;6.20;3.95;;;14.50;99.90;;;;;;5129923;27;47667;-75
2021/10/31 10:11:30;;;;;;;5.40;4.30;;;14.60;99.90;;;;;;5155352;27;48982;-75
2021/10/31 10:14:13;;;;;;;5.88;3.55;;;14.60;99.90;;;;;;5163244;27;39729;-75
2021/10/31 10:16:41;;;;;;;5.68;3.75;;;14.60;99.90;;;;;;5137339;27;48664;-75
2021/10/31 10:19:17;;;;;;;5.90;3.40;;;14.60;99.90;;;;;;5157788;27;38277;-75
2021/10/31 10:21:50;;;;;;;6.32;3.65;;;14.60;99.90;;;;;;5142789;27;38297;-75
2021/10/31 10:24:16;;;;;;;;;;;14.60;99.90;;;;;;5136585;27;40580;-75
2021/10/31 10:26:44;;;;;;;4.47;2.85;;;14.70;99.90;;;;;;5151447;27;38680;-75
2021/10/31 10:29:27;;;;;;;3.60;2.78;;;14.70;99.90;;;;;;5124306;27;38177;-76
2021/10/31 10:32:02;;;;;;;7.57;2.55;;;14.80;99.90;;;;;;5137208;27;37341;-75
2021/10/31 10:34:37;;;;;;;4.97;2.90;;;14.90;99.90;;;;;;5132622;27;46985;-74
2021/10/31 10:37:10;;;;;;;4.72;2.63;;;14.90;99.90;;;;;;5142868;27;38367;-76
2021/10/31 10:39:37;;;;;;;5.22;2.80;;;14.90;99.90;;;;;;5139186;27;37692;-75
2021/10/31 10:42:04;;;;;;;4.70;2.80;;;14.90;99.90;;;;;;5123610;27;39171;-75
2021/10/31 10:44:35;;;;;;;3.65;2.10;;;14.90;99.90;;;;;;5139749;27;38681;-75
2021/10/31 10:47:21;;;;;;;2.72;2.50;;;14.80;99.90;;;;;;5138315;27;37157;-77
2021/10/31 10:49:48;;;;;;;4.93;2.40;;;14.80;99.90;;;;;;5136358;27;47104;-76
2021/10/31 10:52:24;;;;;;;4.75;1.95;;;14.80;99.90;;;;;;5140395;27;37942;-76
2021/10/31 10:54:58;;;;;;;4.80;2.50;;;14.90;99.90;;;;;;5138766;27;38853;-77
2021/10/31 10:57:26;;;;;;;2.90;2.30;;;14.90;99.90;;;;;;5136301;27;38800;-75
2021/10/31 11:00:04;;;;;;;4.38;2.28;;;14.90;99.90;;;;;;5135015;27;39591;-76
2021/10/31 11:02:30;;;;;;;8.30;2.45;;;14.90;99.90;;;;;;5142530;27;48045;-75
2021/10/31 11:05:03;;;;;;;6.20;2.42;;;14.80;99.90;;;;;;5130544;27;40321;-75
2021/10/31 11:07:41;;;;;;;;;;;14.80;99.90;;;;;;5133218;27;48648;-75
2021/10/31 11:10:23;;;;;;;4.20;2.13;;;14.80;99.90;;;;;;5132112;27;37714;-76
2021/10/31 11:12:51;;;;;;;3.50;1.98;;;14.80;99.90;;;;;;5131602;27;37761;-75
2021/10/31 11:15:21;;;;;;;2.85;2.10;;;14.90;99.90;;;;;;5127502;27;39878;-75
2021/10/31 11:17:49;;;;;;;2.88;1.65;;;14.90;99.90;;;;;;5130693;27;38895;-74
2021/10/31 11:20:19;;;;;;;4.07;1.77;;;14.90;99.90;;;;;;5160261;27;36717;-74
2021/10/31 11:22:48;;;;;;;4.25;2.00;;;14.90;99.90;;;;;;5139929;27;39874;-74
2021/10/31 11:25:17;;;;;;;4.10;1.75;;;14.90;99.90;;;;;;5139347;27;38903;-74
2021/10/31 11:27:45;;;;;;;3.65;2.17;;;14.80;99.90;;;;;;5130598;27;38320;-74
2021/10/31 11:30:14;;;;;;;6.55;1.90;;;14.80;99.90;;;;;;5133491;27;40199;-75
2021/10/31 11:32:41;;;;;;;3.75;1.67;;;14.80;99.90;;;;;;5136047;27;37283;-75
2021/10/31 11:35:10;;;;;;;4.45;2.03;;;14.80;99.90;;;;;;5131928;27;37766;-77
2021/10/31 11:38:03;;;;;;;2.05;1.70;;;14.70;99.90;;;;;;5134098;27;38285;-75
2021/10/31 11:40:32;;;;;;;3.63;1.52;;;14.60;99.90;;;;;;5134559;27;47216;-74
2021/10/31 11:42:59;;;;;;;4.20;2.00;;;14.60;99.90;;;;;;5133148;27;36766;-75
2021/10/31 11:45:32;;;;;;;4.22;2.03;;;14.50;99.90;;;;;;5150713;27;39109;-76
2021/10/31 11:48:11;;;;;;;2.97;1.67;;;14.40;99.90;;;;;;5130476;27;38251;-76
2021/10/31 11:50:41;;;;;;;2.72;1.83;;;14.40;99.90;;;;;;5128655;27;48652;-74
2021/10/31 11:53:18;;;;;;;3.78;2.00;;;14.30;99.90;;;;;;5124501;27;39093;-75
2021/10/31 11:55:50;;;;;;;5.68;2.28;;;14.30;99.90;;;;;;5131223;27;38558;-74
2021/10/31 11:58:24;;;;;;;4.50;2.33;;;14.30;99.90;;;;;;5125490;27;39516;-75
2021/10/31 12:00:52;;;;;;;4.43;2.20;;;14.30;99.90;;;;;;5137119;27;37845;-76
2021/10/31 12:03:46;;;;;;;4.38;2.35;;;14.30;99.90;;;;;;5140722;27;37743;-74
2021/10/31 12:06:15;;;;;;;3.58;1.73;;;14.40;99.90;;;;;;5156507;27;39956;-75
2021/10/31 12:08:47;;;;;;;3.53;2.80;;;14.40;99.90;;;;;;5144039;27;40596;-76
2021/10/31 12:11:18;;;;;;;4.43;1.85;;;14.50;99.90;;;;;;5141828;27;37940;-76
2021/10/31 12:13:47;;;;;;;3.65;1.98;;;14.50;99.90;;;;;;5154129;27;37558;-75
2021/10/31 12:16:18;;;;;;;6.65;2.17;;;14.50;99.90;;;;;;5138081;27;38062;-74
2021/10/31 12:18:51;;;;;;;4.68;2.10;;;14.50;99.90;;;;;;5157786;27;38494;-74
2021/10/31 12:21:29;;;;;;;5.85;2.30;;;14.50;99.90;;;;;;5156078;27;38434;-75
2021/10/31 12:23:57;;;;;;;2.55;2.10;;;14.60;99.90;;;;;;5127775;27;37539;-76
2021/10/31 12:26:26;;;;;;;5.63;1.98;;;14.60;99.90;;;;;;5141986;27;37753;-74
2021/10/31 12:29:07;;;;;;;3.10;1.70;;;14.60;99.90;;;;;;5139016;27;38226;-74
2021/10/31 12:31:33;;;;;;;5.70;2.75;;;14.60;99.90;;;;;;5129512;27;47376;-75
2021/10/31 12:34:17;;;;;;;4.07;1.73;;;14.60;99.90;;;;;;5140392;27;36925;-75
2021/10/31 12:36:46;;;;;;;4.53;1.98;;;14.60;99.90;;;;;;5155374;27;47140;-75
2021/10/31 12:39:44;;;;;;;4.85;1.73;;;14.60;99.90;;;;;;5134589;27;38371;-75
2021/10/31 12:42:10;;;;;;;5.60;1.95;;;14.60;99.90;;;;;;5135763;27;37295;-75
2021/10/31 12:44:38;;;;;;;2.90;1.80;;;14.70;99.90;;;;;;5134792;27;37376;-75
2021/10/31 12:47:07;;;;;;;4.82;2.47;;;14.70;99.90;;;;;;5129718;27;39117;-75
2021/10/31 12:49:34;;;;;;;3.10;1.67;;;14.70;99.90;;;;;;5129454;27;37792;-74
2021/10/31 12:52:04;;;;;;;4.03;1.95;;;14.80;99.90;;;;;;5138173;27;37630;-76